sensor_id;sensor_type;location;lat;lon;timestamp;temperature;humidity
78541;SHT31;67835;51.968;5.646;2023-12-20T10:39:00;11.3;67.4
78541;SHT31;67835;51.968;5.646;2023-12-20T10:41:31;11.3;67.4
78541;SHT31;67835;51.968;5.646;2023-12-20T10:44:03;11.4;67.1
78541;SHT31;67835;51.968;5.646;2023-12-20T10:46:36;11.4;66.9
78541;SHT31;67835;51.968;5.646;2023-12-20T10:49:05;11.4;67.2
78541;SHT31;67835;51.968;5.646;2023-12-20T10:51:39;11.3;66.8
78541;SHT31;67835;51.968;5.646;2023-12-20T10:54:08;11.3;67.1
78541;SHT31;67835;51.968;5.646;2023-12-20T10:56:38;11.3;67.4
78541;SHT31;67835;51.968;5.646;2023-12-20T10:59:12;11.3;67.0
78541;SHT31;67835;51.968;5.646;2023-12-20T11:01:42;11.3;67.6
78541;SHT31;67835;51.968;5.646;2023-12-20T11:04:18;11.3;67.7
78541;SHT31;67835;51.968;5.646;2023-12-20T11:06:54;11.3;67.1
78541;SHT31;67835;51.968;5.646;2023-12-20T11:09:25;11.3;67.4
78541;SHT31;67835;51.968;5.646;2023-12-20T11:12:09;11.3;67.5
78541;SHT31;67835;51.968;5.646;2023-12-20T11:14:45;11.4;67.2
78541;SHT31;67835;51.968;5.646;2023-12-20T11:17:14;11.4;67.3
78541;SHT31;67835;51.968;5.646;2023-12-20T11:20:07;11.4;67.5
78541;SHT31;67835;51.968;5.646;2023-12-20T11:22:37;11.5;66.7
78541;SHT31;67835;51.968;5.646;2023-12-20T11:25:10;11.5;67.2
78541;SHT31;67835;51.968;5.646;2023-12-20T11:27:41;11.6;66.5
78541;SHT31;67835;51.968;5.646;2023-12-20T11:30:14;11.6;66.7
78541;SHT31;67835;51.968;5.646;2023-12-20T11:32:48;11.7;66.0
78541;SHT31;67835;51.968;5.646;2023-12-20T11:35:21;11.7;65.9
78541;SHT31;67835;51.968;5.646;2023-12-20T11:37:51;11.8;65.1
78541;SHT31;67835;51.968;5.646;2023-12-20T11:40:24;11.8;65.1
78541;SHT31;67835;51.968;5.646;2023-12-20T11:42:54;11.9;64.5
78541;SHT31;67835;51.968;5.646;2023-12-20T11:45:24;11.9;64.8
78541;SHT31;67835;51.968;5.646;2023-12-20T11:47:54;12.0;63.8
78541;SHT31;67835;51.968;5.646;2023-12-20T11:50:24;12.0;64.7
78541;SHT31;67835;51.968;5.646;2023-12-20T11:52:54;12.1;64.2
78541;SHT31;67835;51.968;5.646;2023-12-20T11:55:24;12.1;63.3
78541;SHT31;67835;51.968;5.646;2023-12-20T11:57:53;12.2;63.8
78541;SHT31;67835;51.968;5.646;2023-12-20T12:00:21;12.2;64.1
78541;SHT31;67835;51.968;5.646;2023-12-20T12:02:59;12.3;63.0
78541;SHT31;67835;51.968;5.646;2023-12-20T12:05:30;12.3;63.4
78541;SHT31;67835;51.968;5.646;2023-12-20T12:08:00;12.4;62.7
78541;SHT31;67835;51.968;5.646;2023-12-20T12:10:30;12.4;62.6
78541;SHT31;67835;51.968;5.646;2023-12-20T12:12:59;12.4;63.7
78541;SHT31;67835;51.968;5.646;2023-12-20T12:15:29;12.4;63.3
78541;SHT31;67835;51.968;5.646;2023-12-20T12:17:59;12.5;63.2
78541;SHT31;67835;51.968;5.646;2023-12-20T12:20:29;12.5;63.0
78541;SHT31;67835;51.968;5.646;2023-12-20T12:23:02;12.6;62.9
78541;SHT31;67835;51.968;5.646;2023-12-20T12:25:36;12.6;63.6
78541;SHT31;67835;51.968;5.646;2023-12-20T12:28:07;12.7;63.7
78541;SHT31;67835;51.968;5.646;2023-12-20T12:30:40;12.8;62.3
78541;SHT31;67835;51.968;5.646;2023-12-20T12:33:15;13.0;61.8
78541;SHT31;67835;51.968;5.646;2023-12-20T12:35:48;13.1;60.8
78541;SHT31;67835;51.968;5.646;2023-12-20T12:38:19;13.1;60.6
78541;SHT31;67835;51.968;5.646;2023-12-20T12:40:54;13.1;61.0
78541;SHT31;67835;51.968;5.646;2023-12-20T12:43:27;13.1;60.9
78541;SHT31;67835;51.968;5.646;2023-12-20T12:45:55;13.1;61.4
78541;SHT31;67835;51.968;5.646;2023-12-20T12:48:29;13.1;61.9
78541;SHT31;67835;51.968;5.646;2023-12-20T12:50:58;13.0;62.8
78541;SHT31;67835;51.968;5.646;2023-12-20T12:53:28;12.9;62.3
78541;SHT31;67835;51.968;5.646;2023-12-20T12:55:56;12.9;62.8
78541;SHT31;67835;51.968;5.646;2023-12-20T12:58:25;12.9;62.8
78541;SHT31;67835;51.968;5.646;2023-12-20T13:00:53;12.8;62.9
78541;SHT31;67835;51.968;5.646;2023-12-20T13:03:23;12.8;62.9
78541;SHT31;67835;51.968;5.646;2023-12-20T13:05:51;12.8;62.8
78541;SHT31;67835;51.968;5.646;2023-12-20T13:08:21;12.7;62.7
78541;SHT31;67835;51.968;5.646;2023-12-20T13:10:52;12.7;62.8
78541;SHT31;67835;51.968;5.646;2023-12-20T13:13:22;12.7;63.0
78541;SHT31;67835;51.968;5.646;2023-12-20T13:15:50;12.7;63.2
78541;SHT31;67835;51.968;5.646;2023-12-20T13:18:22;12.7;62.7
78541;SHT31;67835;51.968;5.646;2023-12-20T13:20:56;12.6;62.7
78541;SHT31;67835;51.968;5.646;2023-12-20T13:23:25;12.6;62.4
78541;SHT31;67835;51.968;5.646;2023-12-20T13:25:55;12.6;62.5
78541;SHT31;67835;51.968;5.646;2023-12-20T13:28:24;12.6;62.5
78541;SHT31;67835;51.968;5.646;2023-12-20T13:30:53;12.5;62.5
78541;SHT31;67835;51.968;5.646;2023-12-20T13:33:21;12.5;62.6
78541;SHT31;67835;51.968;5.646;2023-12-20T13:35:50;12.5;62.8
78541;SHT31;67835;51.968;5.646;2023-12-20T13:38:18;12.4;62.6
78541;SHT31;67835;51.968;5.646;2023-12-20T13:40:49;12.4;63.3
78541;SHT31;67835;51.968;5.646;2023-12-20T13:43:18;12.4;63.5
78541;SHT31;67835;51.968;5.646;2023-12-20T13:45:48;12.4;63.0
78541;SHT31;67835;51.968;5.646;2023-12-20T13:48:16;12.3;63.1
78541;SHT31;67835;51.968;5.646;2023-12-20T13:50:45;12.3;63.4
78541;SHT31;67835;51.968;5.646;2023-12-20T13:53:14;12.3;63.6
78541;SHT31;67835;51.968;5.646;2023-12-20T13:55:44;12.3;63.0
78541;SHT31;67835;51.968;5.646;2023-12-20T13:58:12;12.3;63.4
78541;SHT31;67835;51.968;5.646;2023-12-20T14:00:41;12.2;63.5
78541;SHT31;67835;51.968;5.646;2023-12-20T14:03:09;12.2;63.6
78541;SHT31;67835;51.968;5.646;2023-12-20T14:05:38;12.2;64.2
78541;SHT31;67835;51.968;5.646;2023-12-20T14:08:07;12.2;63.3
78541;SHT31;67835;51.968;5.646;2023-12-20T14:10:39;12.2;63.6
78541;SHT31;67835;51.968;5.646;2023-12-20T14:13:07;12.2;64.0
78541;SHT31;67835;51.968;5.646;2023-12-20T14:15:36;12.2;63.2
78541;SHT31;67835;51.968;5.646;2023-12-20T14:18:06;12.2;63.3
78541;SHT31;67835;51.968;5.646;2023-12-20T14:20:36;12.2;63.6
78541;SHT31;67835;51.968;5.646;2023-12-20T14:23:06;12.2;63.4
78541;SHT31;67835;51.968;5.646;2023-12-20T14:25:35;12.2;63.4
78541;SHT31;67835;51.968;5.646;2023-12-20T14:28:05;12.2;63.6
78541;SHT31;67835;51.968;5.646;2023-12-20T14:30:34;12.1;63.9
78541;SHT31;67835;51.968;5.646;2023-12-20T14:33:05;12.1;63.9
78541;SHT31;67835;51.968;5.646;2023-12-20T14:35:35;12.1;64.2
78541;SHT31;67835;51.968;5.646;2023-12-20T14:38:04;12.1;64.3
78541;SHT31;67835;51.968;5.646;2023-12-20T14:40:32;12.1;64.2
78541;SHT31;67835;51.968;5.646;2023-12-20T14:43:03;12.1;64.2
78541;SHT31;67835;51.968;5.646;2023-12-20T14:45:33;12.1;64.3
78541;SHT31;67835;51.968;5.646;2023-12-20T14:48:05;12.1;64.6
78541;SHT31;67835;51.968;5.646;2023-12-20T14:50:34;12.2;64.6
78541;SHT31;67835;51.968;5.646;2023-12-20T14:53:07;12.3;64.2
78541;SHT31;67835;51.968;5.646;2023-12-20T14:55:36;12.4;63.8
78541;SHT31;67835;51.968;5.646;2023-12-20T14:58:06;12.4;63.5
78541;SHT31;67835;51.968;5.646;2023-12-20T15:00:34;12.4;63.8
78541;SHT31;67835;51.968;5.646;2023-12-20T15:03:03;12.4;63.5
78541;SHT31;67835;51.968;5.646;2023-12-20T15:05:34;12.4;63.3
78541;SHT31;67835;51.968;5.646;2023-12-20T15:08:09;12.4;63.3
78541;SHT31;67835;51.968;5.646;2023-12-20T15:10:39;12.4;63.4
78541;SHT31;67835;51.968;5.646;2023-12-20T15:13:08;12.3;63.6
78541;SHT31;67835;51.968;5.646;2023-12-20T15:15:38;12.3;63.7
78541;SHT31;67835;51.968;5.646;2023-12-20T15:18:07;12.3;63.7
78541;SHT31;67835;51.968;5.646;2023-12-20T15:20:35;12.2;64.0
78541;SHT31;67835;51.968;5.646;2023-12-20T15:23:04;12.2;63.9
78541;SHT31;67835;51.968;5.646;2023-12-20T15:25:34;12.2;64.3
78541;SHT31;67835;51.968;5.646;2023-12-20T15:28:03;12.1;64.3
78541;SHT31;67835;51.968;5.646;2023-12-20T15:30:33;12.1;64.3
78541;SHT31;67835;51.968;5.646;2023-12-20T15:33:02;12.1;64.7
78541;SHT31;67835;51.968;5.646;2023-12-20T15:35:31;12.0;65.2
78541;SHT31;67835;51.968;5.646;2023-12-20T15:38:00;12.0;65.4
78541;SHT31;67835;51.968;5.646;2023-12-20T15:40:31;12.0;65.6
78541;SHT31;67835;51.968;5.646;2023-12-20T15:43:00;12.0;66.0
78541;SHT31;67835;51.968;5.646;2023-12-20T15:45:28;11.9;66.2
78541;SHT31;67835;51.968;5.646;2023-12-20T15:47:56;11.9;66.6
78541;SHT31;67835;51.968;5.646;2023-12-20T15:50:25;11.8;66.8
78541;SHT31;67835;51.968;5.646;2023-12-20T15:52:53;11.8;67.4
78541;SHT31;67835;51.968;5.646;2023-12-20T15:55:23;11.8;67.6
78541;SHT31;67835;51.968;5.646;2023-12-20T15:57:51;11.7;67.9
78541;SHT31;67835;51.968;5.646;2023-12-20T16:00:20;11.7;68.3
78541;SHT31;67835;51.968;5.646;2023-12-20T16:02:49;11.6;68.5
78541;SHT31;67835;51.968;5.646;2023-12-20T16:05:19;11.6;68.8
78541;SHT31;67835;51.968;5.646;2023-12-20T16:07:48;11.6;69.1
78541;SHT31;67835;51.968;5.646;2023-12-20T16:10:17;11.5;69.3
78541;SHT31;67835;51.968;5.646;2023-12-20T16:12:46;11.5;69.7
78541;SHT31;67835;51.968;5.646;2023-12-20T16:15:15;11.5;69.8
78541;SHT31;67835;51.968;5.646;2023-12-20T16:17:44;11.5;69.9
78541;SHT31;67835;51.968;5.646;2023-12-20T16:20:13;11.5;69.9
78541;SHT31;67835;51.968;5.646;2023-12-20T16:22:41;11.5;69.8
78541;SHT31;67835;51.968;5.646;2023-12-20T16:25:10;11.5;69.9
78541;SHT31;67835;51.968;5.646;2023-12-20T16:27:38;11.5;69.9
78541;SHT31;67835;51.968;5.646;2023-12-20T16:30:10;11.5;69.8
78541;SHT31;67835;51.968;5.646;2023-12-20T16:32:39;11.5;69.7
78541;SHT31;67835;51.968;5.646;2023-12-20T16:35:08;11.5;70.0
78541;SHT31;67835;51.968;5.646;2023-12-20T16:37:37;11.4;70.1
78541;SHT31;67835;51.968;5.646;2023-12-20T16:40:07;11.4;70.3
78541;SHT31;67835;51.968;5.646;2023-12-20T16:42:36;11.4;70.4
78541;SHT31;67835;51.968;5.646;2023-12-20T16:45:07;11.4;70.5
78541;SHT31;67835;51.968;5.646;2023-12-20T16:47:38;11.4;70.6
78541;SHT31;67835;51.968;5.646;2023-12-20T16:50:10;11.4;70.8
78541;SHT31;67835;51.968;5.646;2023-12-20T16:52:39;11.4;70.9
78541;SHT31;67835;51.968;5.646;2023-12-20T16:55:11;11.4;70.9
78541;SHT31;67835;51.968;5.646;2023-12-20T16:57:39;11.4;70.9
78541;SHT31;67835;51.968;5.646;2023-12-20T17:00:11;11.4;70.8
78541;SHT31;67835;51.968;5.646;2023-12-20T17:02:40;11.4;71.0
78541;SHT31;67835;51.968;5.646;2023-12-20T17:05:09;11.3;71.1
78541;SHT31;67835;51.968;5.646;2023-12-20T17:07:38;11.3;71.2
78541;SHT31;67835;51.968;5.646;2023-12-20T17:10:07;11.3;71.2
78541;SHT31;67835;51.968;5.646;2023-12-20T17:12:36;11.3;71.3
78541;SHT31;67835;51.968;5.646;2023-12-20T17:15:06;11.3;71.6
78541;SHT31;67835;51.968;5.646;2023-12-20T17:17:35;11.3;71.9
78541;SHT31;67835;51.968;5.646;2023-12-20T17:20:05;11.3;72.2
78541;SHT31;67835;51.968;5.646;2023-12-20T17:22:34;11.3;72.5
78541;SHT31;67835;51.968;5.646;2023-12-20T17:25:03;11.3;72.6
78541;SHT31;67835;51.968;5.646;2023-12-20T17:27:32;11.3;72.9
78541;SHT31;67835;51.968;5.646;2023-12-20T17:30:01;11.2;73.2
78541;SHT31;67835;51.968;5.646;2023-12-20T17:32:29;11.2;73.4
78541;SHT31;67835;51.968;5.646;2023-12-20T17:34:58;11.2;73.7
78541;SHT31;67835;51.968;5.646;2023-12-20T17:37:26;11.2;73.9
78541;SHT31;67835;51.968;5.646;2023-12-20T17:39:55;11.1;74.1
78541;SHT31;67835;51.968;5.646;2023-12-20T17:42:23;11.1;74.3
78541;SHT31;67835;51.968;5.646;2023-12-20T17:44:52;11.1;74.4
78541;SHT31;67835;51.968;5.646;2023-12-20T17:47:21;11.1;74.4
78541;SHT31;67835;51.968;5.646;2023-12-20T17:49:49;11.1;74.6
78541;SHT31;67835;51.968;5.646;2023-12-20T17:52:17;11.1;74.6
78541;SHT31;67835;51.968;5.646;2023-12-20T17:54:46;11.1;74.6
78541;SHT31;67835;51.968;5.646;2023-12-20T17:57:14;11.1;74.7
78541;SHT31;67835;51.968;5.646;2023-12-20T17:59:45;11.1;74.7
78541;SHT31;67835;51.968;5.646;2023-12-20T18:02:13;11.1;74.8
78541;SHT31;67835;51.968;5.646;2023-12-20T18:04:42;11.1;74.8
78541;SHT31;67835;51.968;5.646;2023-12-20T18:07:11;11.1;74.9
78541;SHT31;67835;51.968;5.646;2023-12-20T18:09:40;11.1;74.9
78541;SHT31;67835;51.968;5.646;2023-12-20T18:12:09;11.1;74.8
78541;SHT31;67835;51.968;5.646;2023-12-20T18:14:39;11.1;74.9
78541;SHT31;67835;51.968;5.646;2023-12-20T18:17:08;11.1;75.0
78541;SHT31;67835;51.968;5.646;2023-12-20T18:19:36;11.1;75.1
78541;SHT31;67835;51.968;5.646;2023-12-20T18:22:05;11.1;75.2
78541;SHT31;67835;51.968;5.646;2023-12-20T18:24:36;11.0;75.6
78541;SHT31;67835;51.968;5.646;2023-12-20T18:27:05;11.0;75.7
78541;SHT31;67835;51.968;5.646;2023-12-20T18:29:35;11.0;75.8
78541;SHT31;67835;51.968;5.646;2023-12-20T18:32:04;11.0;75.9
78541;SHT31;67835;51.968;5.646;2023-12-20T18:34:33;11.1;76.0
78541;SHT31;67835;51.968;5.646;2023-12-20T18:37:03;11.1;76.0
78541;SHT31;67835;51.968;5.646;2023-12-20T18:39:35;11.1;76.1
78541;SHT31;67835;51.968;5.646;2023-12-20T18:42:06;11.1;76.0
78541;SHT31;67835;51.968;5.646;2023-12-20T18:44:34;11.1;76.1
78541;SHT31;67835;51.968;5.646;2023-12-20T18:47:04;11.1;76.0
78541;SHT31;67835;51.968;5.646;2023-12-20T18:49:34;11.1;76.1
78541;SHT31;67835;51.968;5.646;2023-12-20T18:52:03;11.1;76.2
78541;SHT31;67835;51.968;5.646;2023-12-20T18:54:33;11.1;76.2
78541;SHT31;67835;51.968;5.646;2023-12-20T18:57:04;11.1;76.1
78541;SHT31;67835;51.968;5.646;2023-12-20T18:59:36;11.1;76.2
78541;SHT31;67835;51.968;5.646;2023-12-20T19:02:05;11.1;76.1
78541;SHT31;67835;51.968;5.646;2023-12-20T19:04:37;11.1;75.9
78541;SHT31;67835;51.968;5.646;2023-12-20T19:07:05;11.1;76.1
78541;SHT31;67835;51.968;5.646;2023-12-20T19:09:35;11.1;76.1
78541;SHT31;67835;51.968;5.646;2023-12-20T19:12:04;11.1;76.1
78541;SHT31;67835;51.968;5.646;2023-12-20T19:14:33;11.1;76.0
78541;SHT31;67835;51.968;5.646;2023-12-20T19:17:01;11.1;76.1
78541;SHT31;67835;51.968;5.646;2023-12-20T19:19:31;11.1;76.0
78541;SHT31;67835;51.968;5.646;2023-12-20T19:21:59;11.1;76.3
78541;SHT31;67835;51.968;5.646;2023-12-20T19:24:29;11.1;76.3
78541;SHT31;67835;51.968;5.646;2023-12-20T19:26:58;11.2;76.1
78541;SHT31;67835;51.968;5.646;2023-12-20T19:29:30;11.2;76.0
78541;SHT31;67835;51.968;5.646;2023-12-20T19:32:01;11.2;76.0
78541;SHT31;67835;51.968;5.646;2023-12-20T19:34:32;11.2;75.9
78541;SHT31;67835;51.968;5.646;2023-12-20T19:37:01;11.2;75.7
78541;SHT31;67835;51.968;5.646;2023-12-20T19:39:29;11.3;75.4
78541;SHT31;67835;51.968;5.646;2023-12-20T19:41:58;11.3;75.3
78541;SHT31;67835;51.968;5.646;2023-12-20T19:44:26;11.3;75.3
78541;SHT31;67835;51.968;5.646;2023-12-20T19:46:55;11.3;75.1
78541;SHT31;67835;51.968;5.646;2023-12-20T19:49:23;11.4;75.0
78541;SHT31;67835;51.968;5.646;2023-12-20T19:51:53;11.4;75.1
78541;SHT31;67835;51.968;5.646;2023-12-20T19:54:24;11.4;75.1
78541;SHT31;67835;51.968;5.646;2023-12-20T19:56:54;11.4;75.1
78541;SHT31;67835;51.968;5.646;2023-12-20T19:59:23;11.4;75.0
78541;SHT31;67835;51.968;5.646;2023-12-20T20:01:53;11.4;75.0
78541;SHT31;67835;51.968;5.646;2023-12-20T20:04:24;11.4;74.8
78541;SHT31;67835;51.968;5.646;2023-12-20T20:06:53;11.4;75.0
78541;SHT31;67835;51.968;5.646;2023-12-20T20:09:22;11.5;75.1
78541;SHT31;67835;51.968;5.646;2023-12-20T20:11:50;11.5;75.0
78541;SHT31;67835;51.968;5.646;2023-12-20T20:14:20;11.5;75.1
78541;SHT31;67835;51.968;5.646;2023-12-20T20:16:53;11.5;75.3
78541;SHT31;67835;51.968;5.646;2023-12-20T20:19:22;11.5;75.2
78541;SHT31;67835;51.968;5.646;2023-12-20T20:21:52;11.6;75.2
78541;SHT31;67835;51.968;5.646;2023-12-20T20:24:21;11.6;75.3
78541;SHT31;67835;51.968;5.646;2023-12-20T20:26:51;11.6;75.3
78541;SHT31;67835;51.968;5.646;2023-12-20T20:29:20;11.6;75.6
78541;SHT31;67835;51.968;5.646;2023-12-20T20:31:51;11.6;75.5
78541;SHT31;67835;51.968;5.646;2023-12-20T20:34:19;11.6;75.7
78541;SHT31;67835;51.968;5.646;2023-12-20T20:36:53;11.6;75.8
78541;SHT31;67835;51.968;5.646;2023-12-20T20:39:25;11.6;75.8
78541;SHT31;67835;51.968;5.646;2023-12-20T20:41:53;11.6;76.0
78541;SHT31;67835;51.968;5.646;2023-12-20T20:44:22;11.5;76.2
78541;SHT31;67835;51.968;5.646;2023-12-20T20:46:56;11.5;76.3
78541;SHT31;67835;51.968;5.646;2023-12-20T20:49:27;11.5;76.4
78541;SHT31;67835;51.968;5.646;2023-12-20T20:51:56;11.5;76.5
78541;SHT31;67835;51.968;5.646;2023-12-20T20:54:27;11.5;76.6
78541;SHT31;67835;51.968;5.646;2023-12-20T20:56:56;11.5;76.7
78541;SHT31;67835;51.968;5.646;2023-12-20T20:59:25;11.6;76.8
78541;SHT31;67835;51.968;5.646;2023-12-20T21:01:54;11.6;76.7
78541;SHT31;67835;51.968;5.646;2023-12-20T21:04:22;11.6;76.6
78541;SHT31;67835;51.968;5.646;2023-12-20T21:06:52;11.6;76.3
78541;SHT31;67835;51.968;5.646;2023-12-20T21:09:22;11.7;76.2
78541;SHT31;67835;51.968;5.646;2023-12-20T21:11:50;11.7;76.2
78541;SHT31;67835;51.968;5.646;2023-12-20T21:14:20;11.7;76.1
78541;SHT31;67835;51.968;5.646;2023-12-20T21:16:49;11.7;76.2
78541;SHT31;67835;51.968;5.646;2023-12-20T21:19:19;11.7;76.1
78541;SHT31;67835;51.968;5.646;2023-12-20T21:21:49;11.7;76.1
78541;SHT31;67835;51.968;5.646;2023-12-20T21:24:17;11.7;76.0
78541;SHT31;67835;51.968;5.646;2023-12-20T21:26:46;11.7;76.1
78541;SHT31;67835;51.968;5.646;2023-12-20T21:29:14;11.7;76.1
78541;SHT31;67835;51.968;5.646;2023-12-20T21:31:45;11.7;76.1
78541;SHT31;67835;51.968;5.646;2023-12-20T21:34:14;11.7;76.2
78541;SHT31;67835;51.968;5.646;2023-12-20T21:36:43;11.7;76.2
78541;SHT31;67835;51.968;5.646;2023-12-20T21:39:14;11.7;76.3
78541;SHT31;67835;51.968;5.646;2023-12-20T21:41:45;11.7;76.3
78541;SHT31;67835;51.968;5.646;2023-12-20T21:44:14;11.7;76.3
78541;SHT31;67835;51.968;5.646;2023-12-20T21:46:43;11.7;76.4
78541;SHT31;67835;51.968;5.646;2023-12-20T21:49:12;11.7;76.5
78541;SHT31;67835;51.968;5.646;2023-12-20T21:51:41;11.7;76.7
78541;SHT31;67835;51.968;5.646;2023-12-20T21:54:10;11.7;76.7
78541;SHT31;67835;51.968;5.646;2023-12-20T21:56:40;11.7;76.7
78541;SHT31;67835;51.968;5.646;2023-12-20T21:59:09;11.7;76.8
78541;SHT31;67835;51.968;5.646;2023-12-20T22:01:45;11.7;76.9
78541;SHT31;67835;51.968;5.646;2023-12-20T22:04:14;11.7;77.0
78541;SHT31;67835;51.968;5.646;2023-12-20T22:06:42;11.7;77.1
78541;SHT31;67835;51.968;5.646;2023-12-20T22:09:11;11.7;77.2
78541;SHT31;67835;51.968;5.646;2023-12-20T22:11:41;11.7;77.2
78541;SHT31;67835;51.968;5.646;2023-12-20T22:14:12;11.7;77.2
78541;SHT31;67835;51.968;5.646;2023-12-20T22:16:42;11.7;77.2
78541;SHT31;67835;51.968;5.646;2023-12-20T22:19:11;11.7;77.3
78541;SHT31;67835;51.968;5.646;2023-12-20T22:21:39;11.7;77.4
78541;SHT31;67835;51.968;5.646;2023-12-20T22:24:12;11.7;77.2
78541;SHT31;67835;51.968;5.646;2023-12-20T22:26:41;11.7;77.2
78541;SHT31;67835;51.968;5.646;2023-12-20T22:29:09;11.7;77.2
78541;SHT31;67835;51.968;5.646;2023-12-20T22:31:38;11.7;77.2
78541;SHT31;67835;51.968;5.646;2023-12-20T22:34:06;11.7;77.2
78541;SHT31;67835;51.968;5.646;2023-12-20T22:36:37;11.8;77.2
78541;SHT31;67835;51.968;5.646;2023-12-20T22:39:07;11.8;77.2
78541;SHT31;67835;51.968;5.646;2023-12-20T22:41:38;11.8;77.2
78541;SHT31;67835;51.968;5.646;2023-12-20T22:44:08;11.8;77.3
78541;SHT31;67835;51.968;5.646;2023-12-20T22:46:37;11.8;77.2
78541;SHT31;67835;51.968;5.646;2023-12-20T22:49:07;11.8;77.3
78541;SHT31;67835;51.968;5.646;2023-12-20T22:51:37;11.8;77.4
78541;SHT31;67835;51.968;5.646;2023-12-20T22:54:09;11.9;77.2
78541;SHT31;67835;51.968;5.646;2023-12-20T22:56:39;11.9;77.1
78541;SHT31;67835;51.968;5.646;2023-12-20T22:59:07;11.9;76.8
78541;SHT31;67835;51.968;5.646;2023-12-20T23:01:40;12.0;76.8
78541;SHT31;67835;51.968;5.646;2023-12-20T23:04:09;12.0;76.7
78541;SHT31;67835;51.968;5.646;2023-12-20T23:06:37;12.0;76.6
78541;SHT31;67835;51.968;5.646;2023-12-20T23:09:07;12.1;76.4
78541;SHT31;67835;51.968;5.646;2023-12-20T23:11:37;12.1;76.3
78541;SHT31;67835;51.968;5.646;2023-12-20T23:14:06;12.1;76.4
78541;SHT31;67835;51.968;5.646;2023-12-20T23:16:35;12.1;76.2
78541;SHT31;67835;51.968;5.646;2023-12-20T23:19:04;12.2;76.1
78541;SHT31;67835;51.968;5.646;2023-12-20T23:21:34;12.2;75.8
78541;SHT31;67835;51.968;5.646;2023-12-20T23:24:04;12.2;75.8
78541;SHT31;67835;51.968;5.646;2023-12-20T23:26:33;12.2;75.7
78541;SHT31;67835;51.968;5.646;2023-12-20T23:29:05;12.2;75.7
78541;SHT31;67835;51.968;5.646;2023-12-20T23:31:34;12.2;75.6
78541;SHT31;67835;51.968;5.646;2023-12-20T23:34:02;12.2;75.7
78541;SHT31;67835;51.968;5.646;2023-12-20T23:36:30;12.2;75.7
78541;SHT31;67835;51.968;5.646;2023-12-20T23:38:59;12.2;75.7
78541;SHT31;67835;51.968;5.646;2023-12-20T23:41:28;12.1;75.8
78541;SHT31;67835;51.968;5.646;2023-12-20T23:43:56;12.1;75.8
78541;SHT31;67835;51.968;5.646;2023-12-20T23:46:26;12.1;75.9
78541;SHT31;67835;51.968;5.646;2023-12-20T23:48:54;12.1;75.9
78541;SHT31;67835;51.968;5.646;2023-12-20T23:51:22;12.1;75.9
78541;SHT31;67835;51.968;5.646;2023-12-20T23:53:52;12.1;75.9
78541;SHT31;67835;51.968;5.646;2023-12-20T23:56:23;12.1;75.9
78541;SHT31;67835;51.968;5.646;2023-12-20T23:58:52;12.1;76.0
